aviador You're here:

KSTF Decoded Metar

in
Report Time2017-12-11 05:55:00
UTC Time2017-12-11 05:47:26
Flight Rules vfr VFR
Wind190° at 03 kt
W.Decomp.*RWY 18: 3.0 kt HW 0.5 kt RCW
W.Rank190° ranks 9
Current wind is below 190° avg. (5.1)
Visibility9999 m
Phenomena:N/A
Clouds:N/A
Expected CloudBase > 1,200 ft AGL from Temp-Dew spread
CeilingNone
Temp01°C
Dew Point-2°C (81% RH)
AAT-2.3°C
QNH1024 hPa
Raw Report
KSTF 110555Z AUTO 19003KT 10SM CLR 01/M02 A3025 RMK AO2=

Extra information for KSTF:More info

Social comments